sensor_id;sensor_type;location;lat;lon;timestamp;temperature;humidity
39665;DHT22;26679;50.872;4.332;2022-12-29T00:01:17;11.60;99.90
39665;DHT22;26679;50.872;4.332;2022-12-29T00:03:46;11.60;99.90
39665;DHT22;26679;50.872;4.332;2022-12-29T00:06:12;11.50;99.90
39665;DHT22;26679;50.872;4.332;2022-12-29T00:08:37;11.50;99.90
39665;DHT22;26679;50.872;4.332;2022-12-29T00:11:10;11.40;99.90
39665;DHT22;26679;50.872;4.332;2022-12-29T00:13:35;11.40;99.90
39665;DHT22;26679;50.872;4.332;2022-12-29T00:16:12;11.60;99.90
39665;DHT22;26679;50.872;4.332;2022-12-29T00:18:37;11.60;99.90
39665;DHT22;26679;50.872;4.332;2022-12-29T00:21:03;11.70;99.90
39665;DHT22;26679;50.872;4.332;2022-12-29T00:23:39;11.70;99.90
39665;DHT22;26679;50.872;4.332;2022-12-29T00:26:16;11.90;99.90
39665;DHT22;26679;50.872;4.332;2022-12-29T00:28:53;12.00;99.90
39665;DHT22;26679;50.872;4.332;2022-12-29T00:31:29;12.00;99.90
39665;DHT22;26679;50.872;4.332;2022-12-29T00:34:07;12.00;99.90
39665;DHT22;26679;50.872;4.332;2022-12-29T00:36:44;12.00;99.90
39665;DHT22;26679;50.872;4.332;2022-12-29T00:39:14;12.10;99.90
39665;DHT22;26679;50.872;4.332;2022-12-29T00:41:52;12.20;99.90
39665;DHT22;26679;50.872;4.332;2022-12-29T00:44:30;12.20;99.90
39665;DHT22;26679;50.872;4.332;2022-12-29T00:46:55;12.30;99.90
39665;DHT22;26679;50.872;4.332;2022-12-29T00:49:21;12.30;99.90
39665;DHT22;26679;50.872;4.332;2022-12-29T00:54:27;12.30;99.90
39665;DHT22;26679;50.872;4.332;2022-12-29T00:56:52;12.30;99.90
39665;DHT22;26679;50.872;4.332;2022-12-29T00:59:18;12.20;99.90
39665;DHT22;26679;50.872;4.332;2022-12-29T01:01:44;12.30;99.90
39665;DHT22;26679;50.872;4.332;2022-12-29T01:04:10;12.30;99.90
39665;DHT22;26679;50.872;4.332;2022-12-29T01:06:37;12.30;99.90
39665;DHT22;26679;50.872;4.332;2022-12-29T01:09:03;12.30;99.90
39665;DHT22;26679;50.872;4.332;2022-12-29T01:11:39;12.30;99.90
39665;DHT22;26679;50.872;4.332;2022-12-29T01:14:04;12.30;99.90
39665;DHT22;26679;50.872;4.332;2022-12-29T01:16:30;12.20;99.90
39665;DHT22;26679;50.872;4.332;2022-12-29T01:18:56;12.00;99.90
39665;DHT22;26679;50.872;4.332;2022-12-29T01:21:21;11.80;99.90
39665;DHT22;26679;50.872;4.332;2022-12-29T01:23:47;11.70;99.90
39665;DHT22;26679;50.872;4.332;2022-12-29T01:26:13;11.60;99.90
39665;DHT22;26679;50.872;4.332;2022-12-29T01:28:39;11.40;99.90
39665;DHT22;26679;50.872;4.332;2022-12-29T01:31:05;11.30;99.90
39665;DHT22;26679;50.872;4.332;2022-12-29T01:33:31;11.30;99.90
39665;DHT22;26679;50.872;4.332;2022-12-29T01:36:00;11.20;99.90
39665;DHT22;26679;50.872;4.332;2022-12-29T01:38:25;11.10;99.90
39665;DHT22;26679;50.872;4.332;2022-12-29T01:40:51;11.10;99.90
39665;DHT22;26679;50.872;4.332;2022-12-29T01:43:16;11.10;99.90
39665;DHT22;26679;50.872;4.332;2022-12-29T01:45:51;11.10;99.90
39665;DHT22;26679;50.872;4.332;2022-12-29T01:48:17;11.10;99.90
39665;DHT22;26679;50.872;4.332;2022-12-29T01:50:45;11.10;99.90
39665;DHT22;26679;50.872;4.332;2022-12-29T01:53:12;11.10;99.90
39665;DHT22;26679;50.872;4.332;2022-12-29T01:55:40;11.20;99.90
39665;DHT22;26679;50.872;4.332;2022-12-29T01:58:08;11.20;99.90
39665;DHT22;26679;50.872;4.332;2022-12-29T02:00:34;11.20;99.90
39665;DHT22;26679;50.872;4.332;2022-12-29T02:03:00;11.00;99.90
39665;DHT22;26679;50.872;4.332;2022-12-29T02:05:33;11.00;99.90
39665;DHT22;26679;50.872;4.332;2022-12-29T02:08:01;11.00;99.90
39665;DHT22;26679;50.872;4.332;2022-12-29T02:10:27;10.70;99.90
39665;DHT22;26679;50.872;4.332;2022-12-29T02:12:53;10.80;99.90
39665;DHT22;26679;50.872;4.332;2022-12-29T02:15:19;10.80;99.90
39665;DHT22;26679;50.872;4.332;2022-12-29T02:17:53;10.70;99.90
39665;DHT22;26679;50.872;4.332;2022-12-29T02:25:30;10.50;99.90
39665;DHT22;26679;50.872;4.332;2022-12-29T02:30:42;10.40;99.90
39665;DHT22;26679;50.872;4.332;2022-12-29T02:38:18;10.20;99.90
39665;DHT22;26679;50.872;4.332;2022-12-29T02:40:48;10.30;99.90
39665;DHT22;26679;50.872;4.332;2022-12-29T02:46:00;10.20;99.90
39665;DHT22;26679;50.872;4.332;2022-12-29T02:51:25;10.20;99.90
39665;DHT22;26679;50.872;4.332;2022-12-29T02:53:53;10.20;99.90
39665;DHT22;26679;50.872;4.332;2022-12-29T02:56:31;10.10;99.90
39665;DHT22;26679;50.872;4.332;2022-12-29T02:58:56;10.20;99.90
39665;DHT22;26679;50.872;4.332;2022-12-29T03:11:43;9.80;99.90
39665;DHT22;26679;50.872;4.332;2022-12-29T03:14:29;9.80;99.90
39665;DHT22;26679;50.872;4.332;2022-12-29T03:17:07;9.70;99.90
39665;DHT22;26679;50.872;4.332;2022-12-29T03:19:36;9.70;99.90
39665;DHT22;26679;50.872;4.332;2022-12-29T03:22:04;9.70;99.90
39665;DHT22;26679;50.872;4.332;2022-12-29T03:24:43;9.60;99.90
39665;DHT22;26679;50.872;4.332;2022-12-29T03:27:09;9.70;99.90
39665;DHT22;26679;50.872;4.332;2022-12-29T03:29:37;9.90;99.90
39665;DHT22;26679;50.872;4.332;2022-12-29T03:32:04;9.90;99.90
39665;DHT22;26679;50.872;4.332;2022-12-29T03:34:30;9.90;99.90
39665;DHT22;26679;50.872;4.332;2022-12-29T03:37:00;10.10;99.90
39665;DHT22;26679;50.872;4.332;2022-12-29T03:39:28;10.10;99.90
39665;DHT22;26679;50.872;4.332;2022-12-29T03:44:31;10.20;99.90
39665;DHT22;26679;50.872;4.332;2022-12-29T03:46:57;10.20;99.90
39665;DHT22;26679;50.872;4.332;2022-12-29T03:49:22;10.20;99.90
39665;DHT22;26679;50.872;4.332;2022-12-29T03:51:48;10.30;99.90
39665;DHT22;26679;50.872;4.332;2022-12-29T03:54:13;10.40;99.90
39665;DHT22;26679;50.872;4.332;2022-12-29T03:56:38;10.40;99.90
39665;DHT22;26679;50.872;4.332;2022-12-29T03:59:04;10.40;99.90
39665;DHT22;26679;50.872;4.332;2022-12-29T04:01:29;10.40;99.90
39665;DHT22;26679;50.872;4.332;2022-12-29T04:03:55;10.40;99.90
39665;DHT22;26679;50.872;4.332;2022-12-29T04:06:20;10.50;99.90
39665;DHT22;26679;50.872;4.332;2022-12-29T04:08:46;10.50;99.90
39665;DHT22;26679;50.872;4.332;2022-12-29T04:11:11;10.50;99.90
39665;DHT22;26679;50.872;4.332;2022-12-29T04:13:37;10.40;99.90
39665;DHT22;26679;50.872;4.332;2022-12-29T04:16:06;10.30;99.90
39665;DHT22;26679;50.872;4.332;2022-12-29T04:18:31;10.40;99.90
39665;DHT22;26679;50.872;4.332;2022-12-29T04:20:57;10.40;99.90
39665;DHT22;26679;50.872;4.332;2022-12-29T04:23:25;10.40;99.90
39665;DHT22;26679;50.872;4.332;2022-12-29T04:25:51;10.40;99.90
39665;DHT22;26679;50.872;4.332;2022-12-29T04:28:17;10.50;99.90
39665;DHT22;26679;50.872;4.332;2022-12-29T04:30:43;10.60;99.90
39665;DHT22;26679;50.872;4.332;2022-12-29T04:33:08;10.40;99.90
39665;DHT22;26679;50.872;4.332;2022-12-29T04:35:34;10.60;99.90
39665;DHT22;26679;50.872;4.332;2022-12-29T04:37:59;10.60;99.90
39665;DHT22;26679;50.872;4.332;2022-12-29T04:40:25;10.60;99.90
39665;DHT22;26679;50.872;4.332;2022-12-29T04:42:50;10.70;99.90
39665;DHT22;26679;50.872;4.332;2022-12-29T04:45:16;10.60;99.90
39665;DHT22;26679;50.872;4.332;2022-12-29T04:47:41;10.50;99.90
39665;DHT22;26679;50.872;4.332;2022-12-29T04:50:07;10.50;99.90
39665;DHT22;26679;50.872;4.332;2022-12-29T04:52:33;10.50;99.90
39665;DHT22;26679;50.872;4.332;2022-12-29T04:54:59;10.70;99.90
39665;DHT22;26679;50.872;4.332;2022-12-29T04:57:24;10.80;99.90
39665;DHT22;26679;50.872;4.332;2022-12-29T04:59:50;10.90;99.90
39665;DHT22;26679;50.872;4.332;2022-12-29T05:02:15;10.90;99.90
39665;DHT22;26679;50.872;4.332;2022-12-29T05:04:41;10.90;99.90
39665;DHT22;26679;50.872;4.332;2022-12-29T05:07:07;10.80;99.90
39665;DHT22;26679;50.872;4.332;2022-12-29T05:09:32;10.90;99.90
39665;DHT22;26679;50.872;4.332;2022-12-29T05:11:59;10.90;99.90
39665;DHT22;26679;50.872;4.332;2022-12-29T05:14:24;10.90;99.90
39665;DHT22;26679;50.872;4.332;2022-12-29T05:16:50;10.90;99.90
39665;DHT22;26679;50.872;4.332;2022-12-29T05:19:15;11.00;99.90
39665;DHT22;26679;50.872;4.332;2022-12-29T05:21:42;10.70;99.90
39665;DHT22;26679;50.872;4.332;2022-12-29T05:24:07;11.10;99.90
39665;DHT22;26679;50.872;4.332;2022-12-29T05:26:33;11.10;99.90
39665;DHT22;26679;50.872;4.332;2022-12-29T05:28:58;11.20;99.90
39665;DHT22;26679;50.872;4.332;2022-12-29T05:31:25;11.10;99.90
39665;DHT22;26679;50.872;4.332;2022-12-29T05:33:50;11.10;99.90
39665;DHT22;26679;50.872;4.332;2022-12-29T05:36:16;10.90;99.90
39665;DHT22;26679;50.872;4.332;2022-12-29T05:38:42;11.00;99.90
39665;DHT22;26679;50.872;4.332;2022-12-29T05:41:07;11.10;99.90
39665;DHT22;26679;50.872;4.332;2022-12-29T05:43:33;11.10;99.90
39665;DHT22;26679;50.872;4.332;2022-12-29T05:45:58;11.00;99.90
39665;DHT22;26679;50.872;4.332;2022-12-29T05:48:24;11.10;99.90
39665;DHT22;26679;50.872;4.332;2022-12-29T05:50:49;11.10;99.90
39665;DHT22;26679;50.872;4.332;2022-12-29T05:53:15;11.10;99.90
39665;DHT22;26679;50.872;4.332;2022-12-29T05:55:42;11.10;99.90
39665;DHT22;26679;50.872;4.332;2022-12-29T05:58:08;11.00;99.90
39665;DHT22;26679;50.872;4.332;2022-12-29T06:00:33;10.50;99.90
39665;DHT22;26679;50.872;4.332;2022-12-29T06:02:59;10.90;99.90
39665;DHT22;26679;50.872;4.332;2022-12-29T06:05:24;10.90;99.90
39665;DHT22;26679;50.872;4.332;2022-12-29T06:07:50;10.90;99.90
39665;DHT22;26679;50.872;4.332;2022-12-29T06:10:16;11.00;99.90
39665;DHT22;26679;50.872;4.332;2022-12-29T06:12:42;11.00;99.90
39665;DHT22;26679;50.872;4.332;2022-12-29T06:15:07;11.00;99.90
39665;DHT22;26679;50.872;4.332;2022-12-29T06:17:33;11.00;99.90
39665;DHT22;26679;50.872;4.332;2022-12-29T06:19:58;11.00;99.90
39665;DHT22;26679;50.872;4.332;2022-12-29T06:22:24;10.90;99.90
39665;DHT22;26679;50.872;4.332;2022-12-29T06:24:49;10.90;99.90
39665;DHT22;26679;50.872;4.332;2022-12-29T06:27:15;10.90;99.90
39665;DHT22;26679;50.872;4.332;2022-12-29T06:29:41;10.90;99.90
39665;DHT22;26679;50.872;4.332;2022-12-29T06:32:08;10.90;99.90
39665;DHT22;26679;50.872;4.332;2022-12-29T06:34:33;11.00;99.90
39665;DHT22;26679;50.872;4.332;2022-12-29T06:36:59;11.10;99.90
39665;DHT22;26679;50.872;4.332;2022-12-29T06:39:24;11.10;99.90
39665;DHT22;26679;50.872;4.332;2022-12-29T06:41:53;11.20;99.90
39665;DHT22;26679;50.872;4.332;2022-12-29T06:44:19;11.20;99.90
39665;DHT22;26679;50.872;4.332;2022-12-29T06:46:45;11.20;99.90
39665;DHT22;26679;50.872;4.332;2022-12-29T06:49:10;11.20;99.90
39665;DHT22;26679;50.872;4.332;2022-12-29T06:51:36;11.10;99.90
39665;DHT22;26679;50.872;4.332;2022-12-29T06:54:01;11.20;99.90
39665;DHT22;26679;50.872;4.332;2022-12-29T06:56:27;11.20;99.90
39665;DHT22;26679;50.872;4.332;2022-12-29T06:58:52;11.20;99.90
39665;DHT22;26679;50.872;4.332;2022-12-29T07:01:18;11.20;99.90
39665;DHT22;26679;50.872;4.332;2022-12-29T07:03:43;11.20;99.90
39665;DHT22;26679;50.872;4.332;2022-12-29T07:06:09;11.20;99.90
39665;DHT22;26679;50.872;4.332;2022-12-29T07:08:34;11.20;99.90
39665;DHT22;26679;50.872;4.332;2022-12-29T07:11:00;11.20;99.90
39665;DHT22;26679;50.872;4.332;2022-12-29T07:13:26;11.10;99.90
39665;DHT22;26679;50.872;4.332;2022-12-29T07:15:51;11.10;99.90
39665;DHT22;26679;50.872;4.332;2022-12-29T07:18:17;11.20;99.90
39665;DHT22;26679;50.872;4.332;2022-12-29T07:20:42;11.20;99.90
39665;DHT22;26679;50.872;4.332;2022-12-29T07:23:08;11.10;99.90
39665;DHT22;26679;50.872;4.332;2022-12-29T07:25:33;11.20;99.90
39665;DHT22;26679;50.872;4.332;2022-12-29T07:28:01;11.20;99.90
39665;DHT22;26679;50.872;4.332;2022-12-29T07:30:27;11.20;99.90
39665;DHT22;26679;50.872;4.332;2022-12-29T07:32:52;11.20;99.90
39665;DHT22;26679;50.872;4.332;2022-12-29T07:35:18;11.20;99.90
39665;DHT22;26679;50.872;4.332;2022-12-29T07:37:43;11.30;99.90
39665;DHT22;26679;50.872;4.332;2022-12-29T07:40:09;11.30;99.90
39665;DHT22;26679;50.872;4.332;2022-12-29T07:42:35;11.20;99.90
39665;DHT22;26679;50.872;4.332;2022-12-29T07:45:00;11.20;99.90
39665;DHT22;26679;50.872;4.332;2022-12-29T07:47:26;11.20;99.90
39665;DHT22;26679;50.872;4.332;2022-12-29T07:49:52;11.30;99.90
39665;DHT22;26679;50.872;4.332;2022-12-29T07:52:17;11.30;99.90
39665;DHT22;26679;50.872;4.332;2022-12-29T07:54:43;11.30;99.90
39665;DHT22;26679;50.872;4.332;2022-12-29T07:57:08;11.20;99.90
39665;DHT22;26679;50.872;4.332;2022-12-29T07:59:34;11.20;99.90
39665;DHT22;26679;50.872;4.332;2022-12-29T08:01:59;11.20;99.90
39665;DHT22;26679;50.872;4.332;2022-12-29T08:04:25;11.20;99.90
39665;DHT22;26679;50.872;4.332;2022-12-29T08:06:50;11.30;99.90
39665;DHT22;26679;50.872;4.332;2022-12-29T08:09:16;11.30;99.90
39665;DHT22;26679;50.872;4.332;2022-12-29T08:11:41;11.20;99.90
39665;DHT22;26679;50.872;4.332;2022-12-29T08:14:08;11.20;99.90
39665;DHT22;26679;50.872;4.332;2022-12-29T08:16:34;11.20;99.90
39665;DHT22;26679;50.872;4.332;2022-12-29T08:18:59;11.30;99.90
39665;DHT22;26679;50.872;4.332;2022-12-29T08:21:26;11.30;99.90
39665;DHT22;26679;50.872;4.332;2022-12-29T08:23:52;11.30;99.90
39665;DHT22;26679;50.872;4.332;2022-12-29T08:26:17;11.30;99.90
39665;DHT22;26679;50.872;4.332;2022-12-29T08:28:43;11.30;99.90
39665;DHT22;26679;50.872;4.332;2022-12-29T08:31:08;11.20;99.90
39665;DHT22;26679;50.872;4.332;2022-12-29T08:33:34;11.30;99.90
39665;DHT22;26679;50.872;4.332;2022-12-29T08:36:03;11.20;99.90
39665;DHT22;26679;50.872;4.332;2022-12-29T08:38:29;11.30;99.90
39665;DHT22;26679;50.872;4.332;2022-12-29T08:40:54;11.30;99.90
39665;DHT22;26679;50.872;4.332;2022-12-29T08:43:20;11.30;99.90
39665;DHT22;26679;50.872;4.332;2022-12-29T08:45:46;11.20;99.90
39665;DHT22;26679;50.872;4.332;2022-12-29T08:48:11;11.20;99.90
39665;DHT22;26679;50.872;4.332;2022-12-29T08:50:36;11.10;99.90
39665;DHT22;26679;50.872;4.332;2022-12-29T08:53:02;11.10;99.90
39665;DHT22;26679;50.872;4.332;2022-12-29T08:55:28;11.10;99.90
39665;DHT22;26679;50.872;4.332;2022-12-29T08:57:53;11.30;99.90
39665;DHT22;26679;50.872;4.332;2022-12-29T09:00:21;11.30;99.90
39665;DHT22;26679;50.872;4.332;2022-12-29T09:02:47;11.30;99.90
39665;DHT22;26679;50.872;4.332;2022-12-29T09:05:12;11.10;99.90
39665;DHT22;26679;50.872;4.332;2022-12-29T09:07:38;10.80;99.90
39665;DHT22;26679;50.872;4.332;2022-12-29T09:10:04;10.60;99.90
39665;DHT22;26679;50.872;4.332;2022-12-29T09:12:30;10.50;99.90
39665;DHT22;26679;50.872;4.332;2022-12-29T09:14:55;10.50;99.90
39665;DHT22;26679;50.872;4.332;2022-12-29T09:17:21;10.40;99.90
39665;DHT22;26679;50.872;4.332;2022-12-29T09:19:57;10.50;99.90
39665;DHT22;26679;50.872;4.332;2022-12-29T09:22:22;10.80;99.90
39665;DHT22;26679;50.872;4.332;2022-12-29T09:24:49;10.80;99.90
39665;DHT22;26679;50.872;4.332;2022-12-29T09:27:15;10.70;99.90
39665;DHT22;26679;50.872;4.332;2022-12-29T09:29:40;10.50;99.90
39665;DHT22;26679;50.872;4.332;2022-12-29T09:32:06;10.40;99.90
39665;DHT22;26679;50.872;4.332;2022-12-29T09:34:32;10.20;99.90
39665;DHT22;26679;50.872;4.332;2022-12-29T09:36:58;10.10;99.90
39665;DHT22;26679;50.872;4.332;2022-12-29T09:39:23;10.10;99.90
39665;DHT22;26679;50.872;4.332;2022-12-29T09:41:55;10.00;99.90
39665;DHT22;26679;50.872;4.332;2022-12-29T09:44:31;10.00;99.90
39665;DHT22;26679;50.872;4.332;2022-12-29T09:47:06;10.10;99.90
39665;DHT22;26679;50.872;4.332;2022-12-29T09:52:16;10.40;99.90
39665;DHT22;26679;50.872;4.332;2022-12-29T09:57:20;10.60;99.90
39665;DHT22;26679;50.872;4.332;2022-12-29T09:59:47;10.80;99.90
39665;DHT22;26679;50.872;4.332;2022-12-29T10:04:51;11.00;99.90
39665;DHT22;26679;50.872;4.332;2022-12-29T10:07:41;11.00;99.90
39665;DHT22;26679;50.872;4.332;2022-12-29T10:10:11;11.00;99.90
39665;DHT22;26679;50.872;4.332;2022-12-29T10:17:53;11.00;99.90
39665;DHT22;26679;50.872;4.332;2022-12-29T10:25:34;11.00;99.90
39665;DHT22;26679;50.872;4.332;2022-12-29T10:28:03;11.10;99.90
39665;DHT22;26679;50.872;4.332;2022-12-29T10:30:31;11.10;99.90
39665;DHT22;26679;50.872;4.332;2022-12-29T10:32:58;11.10;99.90
39665;DHT22;26679;50.872;4.332;2022-12-29T10:35:29;11.10;99.90
39665;DHT22;26679;50.872;4.332;2022-12-29T10:40:28;11.10;99.90
39665;DHT22;26679;50.872;4.332;2022-12-29T10:42:55;11.20;99.90
39665;DHT22;26679;50.872;4.332;2022-12-29T10:45:23;11.20;99.90
39665;DHT22;26679;50.872;4.332;2022-12-29T10:50:20;11.40;99.90
39665;DHT22;26679;50.872;4.332;2022-12-29T10:52:46;11.40;99.90
39665;DHT22;26679;50.872;4.332;2022-12-29T10:55:17;11.60;99.90
39665;DHT22;26679;50.872;4.332;2022-12-29T10:57:44;11.60;99.90
39665;DHT22;26679;50.872;4.332;2022-12-29T11:00:11;11.50;99.90
39665;DHT22;26679;50.872;4.332;2022-12-29T11:02:47;11.40;99.90
39665;DHT22;26679;50.872;4.332;2022-12-29T11:07:58;11.60;99.90
39665;DHT22;26679;50.872;4.332;2022-12-29T11:10:34;11.60;99.90
39665;DHT22;26679;50.872;4.332;2022-12-29T11:13:03;11.70;99.90
39665;DHT22;26679;50.872;4.332;2022-12-29T11:18:07;12.00;99.90
39665;DHT22;26679;50.872;4.332;2022-12-29T11:20:42;12.10;99.90
39665;DHT22;26679;50.872;4.332;2022-12-29T11:25:44;12.20;99.90
39665;DHT22;26679;50.872;4.332;2022-12-29T11:28:14;12.00;99.90
39665;DHT22;26679;50.872;4.332;2022-12-29T11:30:40;11.90;99.90
39665;DHT22;26679;50.872;4.332;2022-12-29T11:33:05;11.70;99.90
39665;DHT22;26679;50.872;4.332;2022-12-29T11:38:25;11.20;99.90
39665;DHT22;26679;50.872;4.332;2022-12-29T11:40:51;11.20;99.90
39665;DHT22;26679;50.872;4.332;2022-12-29T11:43:30;11.10;99.90
39665;DHT22;26679;50.872;4.332;2022-12-29T11:45:57;11.10;99.90
39665;DHT22;26679;50.872;4.332;2022-12-29T11:48:22;11.10;99.90
39665;DHT22;26679;50.872;4.332;2022-12-29T11:50:53;11.00;99.90
39665;DHT22;26679;50.872;4.332;2022-12-29T11:53:23;11.00;99.90
39665;DHT22;26679;50.872;4.332;2022-12-29T11:58:31;11.20;99.90
39665;DHT22;26679;50.872;4.332;2022-12-29T12:01:01;11.10;99.90
39665;DHT22;26679;50.872;4.332;2022-12-29T12:03:27;11.10;99.90
39665;DHT22;26679;50.872;4.332;2022-12-29T12:05:56;11.10;99.90
39665;DHT22;26679;50.872;4.332;2022-12-29T12:10:59;11.00;99.90
39665;DHT22;26679;50.872;4.332;2022-12-29T12:13:30;11.00;99.90
39665;DHT22;26679;50.872;4.332;2022-12-29T12:16:20;11.10;99.90
39665;DHT22;26679;50.872;4.332;2022-12-29T12:18:52;11.00;99.90
39665;DHT22;26679;50.872;4.332;2022-12-29T12:21:23;10.70;99.90
39665;DHT22;26679;50.872;4.332;2022-12-29T12:34:06;10.80;99.90
39665;DHT22;26679;50.872;4.332;2022-12-29T12:39:18;10.90;99.90
39665;DHT22;26679;50.872;4.332;2022-12-29T12:47:01;11.10;99.90
39665;DHT22;26679;50.872;4.332;2022-12-29T12:57:41;11.20;99.90
39665;DHT22;26679;50.872;4.332;2022-12-29T12:59:58;11.30;99.90
39665;DHT22;26679;50.872;4.332;2022-12-29T13:07:34;11.30;99.90
39665;DHT22;26679;50.872;4.332;2022-12-29T13:10:12;11.30;99.90
39665;DHT22;26679;50.872;4.332;2022-12-29T13:12:42;11.30;99.90
39665;DHT22;26679;50.872;4.332;2022-12-29T13:17:57;11.30;99.90
39665;DHT22;26679;50.872;4.332;2022-12-29T13:20:31;11.20;99.90
39665;DHT22;26679;50.872;4.332;2022-12-29T13:25:43;11.30;99.90
39665;DHT22;26679;50.872;4.332;2022-12-29T13:33:23;11.20;99.90
39665;DHT22;26679;50.872;4.332;2022-12-29T13:35:53;11.30;99.90
39665;DHT22;26679;50.872;4.332;2022-12-29T13:38:22;11.30;99.90
39665;DHT22;26679;50.872;4.332;2022-12-29T13:40:50;11.30;99.90
39665;DHT22;26679;50.872;4.332;2022-12-29T13:43:18;11.30;99.90
39665;DHT22;26679;50.872;4.332;2022-12-29T13:45:44;11.30;99.90
39665;DHT22;26679;50.872;4.332;2022-12-29T13:48:17;11.30;99.90
39665;DHT22;26679;50.872;4.332;2022-12-29T13:50:48;11.40;99.90
39665;DHT22;26679;50.872;4.332;2022-12-29T13:53:18;11.50;99.90
39665;DHT22;26679;50.872;4.332;2022-12-29T13:55:48;11.40;99.90
39665;DHT22;26679;50.872;4.332;2022-12-29T13:58:18;11.40;99.90
39665;DHT22;26679;50.872;4.332;2022-12-29T14:00:51;11.40;99.90
39665;DHT22;26679;50.872;4.332;2022-12-29T14:08:26;11.30;99.90
39665;DHT22;26679;50.872;4.332;2022-12-29T14:10:52;11.20;99.90
39665;DHT22;26679;50.872;4.332;2022-12-29T14:13:18;11.20;99.90
39665;DHT22;26679;50.872;4.332;2022-12-29T14:15:46;11.20;99.90
39665;DHT22;26679;50.872;4.332;2022-12-29T14:23:26;11.30;99.90
39665;DHT22;26679;50.872;4.332;2022-12-29T14:28:24;11.20;99.90
39665;DHT22;26679;50.872;4.332;2022-12-29T14:30:51;11.30;99.90
39665;DHT22;26679;50.872;4.332;2022-12-29T14:33:17;11.30;99.90
39665;DHT22;26679;50.872;4.332;2022-12-29T14:35:44;11.40;99.90
39665;DHT22;26679;50.872;4.332;2022-12-29T14:38:21;11.40;99.90
39665;DHT22;26679;50.872;4.332;2022-12-29T14:40:47;11.40;99.90
39665;DHT22;26679;50.872;4.332;2022-12-29T14:43:34;11.30;99.90
39665;DHT22;26679;50.872;4.332;2022-12-29T14:46:00;11.20;99.90
39665;DHT22;26679;50.872;4.332;2022-12-29T14:50:54;10.30;99.90
39665;DHT22;26679;50.872;4.332;2022-12-29T14:55:57;9.60;99.90
39665;DHT22;26679;50.872;4.332;2022-12-29T14:58:29;9.50;99.90
39665;DHT22;26679;50.872;4.332;2022-12-29T15:00:56;9.30;99.90
39665;DHT22;26679;50.872;4.332;2022-12-29T15:03:23;9.20;99.90
39665;DHT22;26679;50.872;4.332;2022-12-29T15:05:50;9.20;99.90
39665;DHT22;26679;50.872;4.332;2022-12-29T15:08:17;9.20;99.90
39665;DHT22;26679;50.872;4.332;2022-12-29T15:10:45;9.10;99.90
39665;DHT22;26679;50.872;4.332;2022-12-29T15:13:18;8.90;99.90
39665;DHT22;26679;50.872;4.332;2022-12-29T15:15:46;8.90;99.90
39665;DHT22;26679;50.872;4.332;2022-12-29T15:20:50;8.90;99.90
39665;DHT22;26679;50.872;4.332;2022-12-29T15:23:17;8.70;99.90
39665;DHT22;26679;50.872;4.332;2022-12-29T15:25:47;8.70;99.90
39665;DHT22;26679;50.872;4.332;2022-12-29T15:28:13;8.70;99.90
39665;DHT22;26679;50.872;4.332;2022-12-29T15:30:49;8.60;99.90
39665;DHT22;26679;50.872;4.332;2022-12-29T15:33:18;8.50;99.90
39665;DHT22;26679;50.872;4.332;2022-12-29T15:35:44;8.40;99.90
39665;DHT22;26679;50.872;4.332;2022-12-29T15:38:16;8.40;99.90
39665;DHT22;26679;50.872;4.332;2022-12-29T15:40:43;8.40;99.90
39665;DHT22;26679;50.872;4.332;2022-12-29T15:45:34;8.40;99.90
39665;DHT22;26679;50.872;4.332;2022-12-29T15:48:01;8.50;99.90
39665;DHT22;26679;50.872;4.332;2022-12-29T15:50:28;8.60;99.90
39665;DHT22;26679;50.872;4.332;2022-12-29T15:52:54;8.70;99.90
39665;DHT22;26679;50.872;4.332;2022-12-29T15:57:51;8.80;99.90
39665;DHT22;26679;50.872;4.332;2022-12-29T16:00:23;8.70;99.90
39665;DHT22;26679;50.872;4.332;2022-12-29T16:02:50;8.80;99.90
39665;DHT22;26679;50.872;4.332;2022-12-29T16:05:17;8.70;99.90
39665;DHT22;26679;50.872;4.332;2022-12-29T16:10:22;8.70;99.90
39665;DHT22;26679;50.872;4.332;2022-12-29T16:12:47;8.70;99.90
39665;DHT22;26679;50.872;4.332;2022-12-29T16:15:13;8.70;99.90
39665;DHT22;26679;50.872;4.332;2022-12-29T16:17:46;8.80;99.90
39665;DHT22;26679;50.872;4.332;2022-12-29T16:20:20;8.80;99.90
39665;DHT22;26679;50.872;4.332;2022-12-29T16:22:48;8.80;99.90
39665;DHT22;26679;50.872;4.332;2022-12-29T16:25:19;8.90;99.90
39665;DHT22;26679;50.872;4.332;2022-12-29T16:27:47;8.80;99.90
39665;DHT22;26679;50.872;4.332;2022-12-29T16:30:17;8.90;99.90
39665;DHT22;26679;50.872;4.332;2022-12-29T16:32:47;8.90;99.90
39665;DHT22;26679;50.872;4.332;2022-12-29T16:35:20;8.80;99.90
39665;DHT22;26679;50.872;4.332;2022-12-29T16:37:46;8.80;99.90
39665;DHT22;26679;50.872;4.332;2022-12-29T16:40:22;9.00;99.90
39665;DHT22;26679;50.872;4.332;2022-12-29T16:42:49;8.90;99.90
39665;DHT22;26679;50.872;4.332;2022-12-29T16:47:43;9.00;99.90
39665;DHT22;26679;50.872;4.332;2022-12-29T16:50:13;9.00;99.90
39665;DHT22;26679;50.872;4.332;2022-12-29T16:52:41;9.00;99.90
39665;DHT22;26679;50.872;4.332;2022-12-29T16:55:14;9.10;99.90
39665;DHT22;26679;50.872;4.332;2022-12-29T16:57:40;9.20;99.90
39665;DHT22;26679;50.872;4.332;2022-12-29T17:00:07;9.20;99.90
39665;DHT22;26679;50.872;4.332;2022-12-29T17:02:33;9.20;99.90
39665;DHT22;26679;50.872;4.332;2022-12-29T17:05:00;9.10;99.90
39665;DHT22;26679;50.872;4.332;2022-12-29T17:07:26;9.20;99.90
39665;DHT22;26679;50.872;4.332;2022-12-29T17:09:52;9.20;99.90
39665;DHT22;26679;50.872;4.332;2022-12-29T17:12:22;9.20;99.90
39665;DHT22;26679;50.872;4.332;2022-12-29T17:17:16;9.20;99.90
39665;DHT22;26679;50.872;4.332;2022-12-29T17:19:44;9.10;99.90
39665;DHT22;26679;50.872;4.332;2022-12-29T17:22:15;9.10;99.90
39665;DHT22;26679;50.872;4.332;2022-12-29T17:24:41;9.00;99.90
39665;DHT22;26679;50.872;4.332;2022-12-29T17:27:06;8.90;99.90
39665;DHT22;26679;50.872;4.332;2022-12-29T17:29:38;9.10;99.90
39665;DHT22;26679;50.872;4.332;2022-12-29T17:32:06;9.00;99.90
39665;DHT22;26679;50.872;4.332;2022-12-29T17:34:32;9.00;99.90
39665;DHT22;26679;50.872;4.332;2022-12-29T17:36:58;9.00;99.90
39665;DHT22;26679;50.872;4.332;2022-12-29T17:39:23;9.20;99.90
39665;DHT22;26679;50.872;4.332;2022-12-29T17:41:49;9.00;99.90
39665;DHT22;26679;50.872;4.332;2022-12-29T17:44:18;9.00;99.90
39665;DHT22;26679;50.872;4.332;2022-12-29T17:46:44;9.00;99.90
39665;DHT22;26679;50.872;4.332;2022-12-29T17:49:14;9.00;99.90
39665;DHT22;26679;50.872;4.332;2022-12-29T17:51:41;9.00;99.90
39665;DHT22;26679;50.872;4.332;2022-12-29T17:54:09;9.00;99.90
39665;DHT22;26679;50.872;4.332;2022-12-29T17:56:40;9.10;99.90
39665;DHT22;26679;50.872;4.332;2022-12-29T17:59:09;8.90;99.90
39665;DHT22;26679;50.872;4.332;2022-12-29T18:01:35;9.00;99.90
39665;DHT22;26679;50.872;4.332;2022-12-29T18:04:01;8.90;99.90
39665;DHT22;26679;50.872;4.332;2022-12-29T18:06:26;8.90;99.90